Time;durP1;ratioP1;P1;durP2;ratioP2;P2;SDS_P1;SDS_P2;PMS_P1;PMS_P2;Temp;Humidity;BMP_temperature;BMP_pressure;BME280_temperature;BME280_humidity;BME280_pressure;Samples;Min_cycle;Max_cycle;Signal;HPM_P1;HPM_P2
2022/04/14 00:00:24;;;;;;;19.85;14.00;;;;;;;11.34;100.00;96238.47;5063547;28;20072;-50
2022/04/14 00:02:52;;;;;;;22.58;14.77;;;;;;;11.45;100.00;96229.47;5062305;28;20095;-51
2022/04/14 00:05:22;;;;;;;22.55;14.38;;;;;;;11.41;100.00;96228.13;5063445;28;20065;-53
2022/04/14 00:07:50;;;;;;;21.00;13.20;;;;;;;11.48;100.00;96223.03;5065587;28;20517;-54
2022/04/14 00:10:19;;;;;;;19.40;12.00;;;;;;;11.21;100.00;96235.41;5064402;28;21703;-54
2022/04/14 00:12:48;;;;;;;18.38;12.70;;;;;;;10.77;100.00;96238.03;5065035;28;20075;-53
2022/04/14 00:15:16;;;;;;;20.10;13.23;;;;;;;11.01;100.00;96245.34;5064884;28;20064;-54
2022/04/14 00:17:45;;;;;;;19.58;13.65;;;;;;;10.83;100.00;96237.41;5065066;28;20051;-51
2022/04/14 00:20:13;;;;;;;19.77;12.30;;;;;;;10.94;100.00;96238.97;5065337;28;20759;-57
2022/04/14 00:22:43;;;;;;;20.23;12.48;;;;;;;10.71;100.00;96240.44;5065570;28;20088;-55
2022/04/14 00:25:11;;;;;;;16.40;12.20;;;;;;;10.45;100.00;96244.63;5064138;28;20573;-51
2022/04/14 00:27:40;;;;;;;21.42;13.73;;;;;;;10.59;100.00;96248.56;5062210;28;20071;-53
2022/04/14 00:30:10;;;;;;;24.77;14.60;;;;;;;10.82;100.00;96251.59;5064134;28;20068;-52
2022/04/14 00:32:38;;;;;;;23.33;14.82;;;;;;;10.87;100.00;96244.06;5063169;28;20067;-51
2022/04/14 00:35:07;;;;;;;24.38;14.95;;;;;;;10.91;100.00;96260.41;5068805;28;20087;-53
2022/04/14 00:37:35;;;;;;;24.60;15.00;;;;;;;10.85;100.00;96256.56;5067900;28;20220;-55
2022/04/14 00:40:06;;;;;;;19.63;14.85;;;;;;;10.71;100.00;96259.72;5071328;28;20539;-55
2022/04/14 00:42:34;;;;;;;23.20;14.45;;;;;;;10.74;100.00;96263.88;5068181;28;20518;-48
2022/04/14 00:45:03;;;;;;;20.55;13.27;;;;;;;10.59;100.00;96261.75;5068049;28;20071;-52
2022/04/14 00:47:31;;;;;;;21.83;14.52;;;;;;;10.32;100.00;96259.16;5067892;28;20090;-56
2022/04/14 00:50:00;;;;;;;21.20;14.43;;;;;;;10.23;100.00;96259.03;5066292;28;20079;-51
2022/04/14 00:52:28;;;;;;;20.13;13.95;;;;;;;10.33;100.00;96261.66;5068253;28;20079;-56
2022/04/14 00:54:56;;;;;;;20.13;14.40;;;;;;;10.38;100.00;96263.84;5066822;28;20568;-57
2022/04/14 00:57:26;;;;;;;20.13;13.60;;;;;;;10.35;100.00;96261.50;5067903;28;20518;-53
2022/04/14 00:59:54;;;;;;;22.30;14.55;;;;;;;10.31;100.00;96260.94;5066581;28;20060;-54
2022/04/14 01:02:22;;;;;;;18.73;13.98;;;;;;;9.92;100.00;96261.13;5068127;28;20094;-55
2022/04/14 01:04:51;;;;;;;19.63;13.82;;;;;;;10.40;100.00;96261.88;5068454;28;20087;-54
2022/04/14 01:07:19;;;;;;;19.00;13.70;;;;;;;10.37;100.00;96256.91;5066112;28;20068;-48
2022/04/14 01:09:48;;;;;;;19.35;13.60;;;;;;;10.32;100.00;96264.41;5067302;28;20060;-51
2022/04/14 01:12:16;;;;;;;20.98;14.65;;;;;;;10.25;100.00;96265.94;5068072;28;20072;-55
2022/04/14 01:14:46;;;;;;;24.40;14.82;;;;;;;9.80;100.00;96259.66;5068014;28;20056;-53
2022/04/14 01:17:14;;;;;;;18.77;13.60;;;;;;;9.67;100.00;96269.66;5066663;28;20072;-53
2022/04/14 01:19:43;;;;;;;18.33;13.98;;;;;;;9.79;100.00;96273.78;5063970;28;20511;-49
2022/04/14 01:22:15;;;;;;;18.20;13.30;;;;;;;9.97;100.00;96273.84;5066083;28;20092;-49
2022/04/14 01:24:44;;;;;;;17.95;13.55;;;;;;;9.74;100.00;96273.41;5063097;28;20065;-54
2022/04/14 01:27:13;;;;;;;18.30;13.15;;;;;;;9.56;100.00;96275.09;5066838;28;20869;-53
2022/04/14 01:29:41;;;;;;;18.25;13.57;;;;;;;9.35;100.00;96276.13;5067457;28;20084;-52
2022/04/14 01:32:10;;;;;;;20.50;13.70;;;;;;;9.51;100.00;96278.19;5067104;28;20068;-50
2022/04/14 01:34:38;;;;;;;18.00;13.20;;;;;;;9.39;100.00;96285.38;5068665;28;20068;-57
2022/04/14 01:37:07;;;;;;;18.23;12.90;;;;;;;9.24;100.00;96289.44;5067012;28;20071;-56
2022/04/14 01:39:35;;;;;;;19.45;13.07;;;;;;;9.17;100.00;96294.44;5067423;28;20068;-51
2022/04/14 01:42:06;;;;;;;23.10;12.60;;;;;;;8.78;100.00;96293.63;5064825;28;20496;-55
2022/04/14 01:44:34;;;;;;;;;;;;;;;9.11;100.00;96296.78;5068083;28;20068;-55
2022/04/14 01:47:03;;;;;;;19.00;13.43;;;;;;;9.32;100.00;96297.44;5065084;28;19960;-47
2022/04/14 01:49:32;;;;;;;21.33;14.30;;;;;;;9.44;100.00;96295.50;5068026;28;20036;-52
2022/04/14 01:52:00;;;;;;;24.92;15.35;;;;;;;9.48;100.00;96297.72;5066585;28;20051;-49
2022/04/14 01:54:28;;;;;;;24.15;15.45;;;;;;;9.54;100.00;96296.31;5066573;28;20540;-53
2022/04/14 01:56:56;;;;;;;21.38;14.60;;;;;;;9.23;100.00;96295.69;5065964;28;20485;-55
2022/04/14 01:59:26;;;;;;;20.92;14.63;;;;;;;9.42;100.00;96300.06;5064658;28;20084;-48
2022/04/14 02:01:54;;;;;;;19.17;13.75;;;;;;;9.54;100.00;96303.41;5066789;28;20126;-52
2022/04/14 02:04:23;;;;;;;28.63;14.68;;;;;;;9.10;100.00;96303.84;5067738;28;20071;-50
2022/04/14 02:06:51;;;;;;;25.83;14.32;;;;;;;8.82;100.00;96310.78;5067162;28;20064;-52
2022/04/14 02:09:19;;;;;;;21.25;14.10;;;;;;;8.93;100.00;96304.56;5066509;28;20068;-55
2022/04/14 02:11:47;;;;;;;21.60;14.25;;;;;;;9.36;100.00;96306.75;5065740;28;20091;-50
2022/04/14 02:14:16;;;;;;;21.38;14.68;;;;;;;9.40;100.00;96302.03;5066951;28;20072;-58
2022/04/14 02:16:46;;;;;;;21.65;13.52;;;;;;;9.55;100.00;96299.78;5067617;28;20068;-51
2022/04/14 02:19:14;;;;;;;23.88;14.60;;;;;;;9.65;100.00;96300.59;5066725;28;20048;-51
2022/04/14 02:21:43;;;;;;;21.80;14.07;;;;;;;9.67;100.00;96306.53;5065243;28;20560;-48
2022/04/14 02:24:11;;;;;;;18.95;13.88;;;;;;;9.49;100.00;96302.00;5065655;28;20246;-50
2022/04/14 02:26:39;;;;;;;22.08;13.80;;;;;;;9.62;100.00;96301.69;5066520;28;20675;-50
2022/04/14 02:29:07;;;;;;;23.17;14.98;;;;;;;9.68;100.00;96298.50;5062228;28;20080;-51
2022/04/14 02:31:35;;;;;;;21.75;14.45;;;;;;;9.41;100.00;96301.88;5066170;28;20060;-54
2022/04/14 02:34:05;;;;;;;23.70;14.95;;;;;;;9.25;100.00;96304.25;5065047;28;20071;-56
2022/04/14 02:36:33;;;;;;;21.48;15.65;;;;;;;8.87;100.00;96308.56;5065684;28;20075;-51
2022/04/14 02:39:02;;;;;;;22.67;14.02;;;;;;;8.73;100.00;96307.16;5065264;28;20060;-50
2022/04/14 02:41:30;;;;;;;22.15;13.95;;;;;;;8.98;100.00;96304.94;5064829;28;20440;-57
2022/04/14 02:43:59;;;;;;;20.10;14.40;;;;;;;8.69;100.00;96318.91;5066412;28;20076;-53
2022/04/14 02:46:27;;;;;;;20.48;13.98;;;;;;;9.03;100.00;96313.28;5065598;28;20166;-51
2022/04/14 02:48:55;;;;;;;19.52;14.70;;;;;;;9.15;100.00;96311.31;5066030;28;20071;-52
2022/04/14 02:51:25;;;;;;;28.60;14.82;;;;;;;8.78;100.00;96309.41;5064294;28;20086;-54
2022/04/14 02:53:53;;;;;;;25.75;14.48;;;;;;;9.07;100.00;96309.41;5063373;28;20066;-54
2022/04/14 02:56:21;;;;;;;22.80;14.48;;;;;;;9.09;100.00;96311.91;5066313;28;20091;-52
2022/04/14 02:58:49;;;;;;;22.52;14.23;;;;;;;8.54;100.00;96313.22;5064179;28;20080;-53
2022/04/14 03:01:17;;;;;;;20.48;14.52;;;;;;;8.47;100.00;96316.53;5064748;28;20056;-52
2022/04/14 03:03:46;;;;;;;21.65;14.82;;;;;;;8.59;100.00;96310.19;5062147;28;20064;-53
2022/04/14 03:06:14;;;;;;;21.83;13.77;;;;;;;8.49;100.00;96311.97;5065987;28;20080;-51
2022/04/14 03:08:43;;;;;;;19.77;14.15;;;;;;;8.75;100.00;96317.56;5065553;28;20071;-52
2022/04/14 03:11:13;;;;;;;22.70;14.15;;;;;;;8.94;100.00;96312.28;5065158;28;20088;-57
2022/04/14 03:13:42;;;;;;;22.80;14.25;;;;;;;9.07;100.00;96312.03;5063300;28;20588;-53
2022/04/14 03:16:10;;;;;;;22.65;14.98;;;;;;;9.09;100.00;96310.09;5064734;28;20060;-57
2022/04/14 03:18:39;;;;;;;24.88;14.85;;;;;;;9.08;100.00;96315.47;5065354;28;20063;-56
2022/04/14 03:21:07;;;;;;;22.50;15.48;;;;;;;9.01;100.00;96315.19;5065563;28;20072;-53
2022/04/14 03:23:35;;;;;;;22.85;15.77;;;;;;;8.71;100.00;96313.53;5065049;28;20064;-56
2022/04/14 03:26:05;;;;;;;20.33;14.52;;;;;;;8.63;100.00;96323.88;5065601;28;20076;-55
2022/04/14 03:28:33;;;;;;;18.30;14.70;;;;;;;8.84;100.00;96319.34;5065286;28;20052;-57
2022/04/14 03:31:01;;;;;;;21.30;15.05;;;;;;;8.97;100.00;96316.44;5065055;28;20526;-53
2022/04/14 03:33:29;;;;;;;28.90;17.38;;;;;;;8.92;100.00;96319.50;5065132;28;20443;-50
2022/04/14 03:35:58;;;;;;;24.75;16.77;;;;;;;9.02;100.00;96319.50;5065925;28;20056;-52
2022/04/14 03:38:26;;;;;;;25.30;17.20;;;;;;;8.96;100.00;96327.94;5063708;28;20124;-56
2022/04/14 03:41:04;;;;;;;23.90;16.17;;;;;;;8.69;100.00;96331.25;5065506;28;20072;-51
2022/04/14 03:43:34;;;;;;;27.17;16.98;;;;;;;8.57;100.00;96333.16;5065345;28;20744;-50
2022/04/14 03:46:04;;;;;;;23.27;16.67;;;;;;;8.83;100.00;96332.63;5062969;28;20067;-56
2022/04/14 03:48:33;;;;;;;23.65;17.30;;;;;;;8.88;100.00;96331.28;5061942;28;20118;-52
2022/04/14 03:51:01;;;;;;;24.55;16.67;;;;;;;8.64;100.00;96330.84;5060643;28;20071;-53
2022/04/14 03:53:29;;;;;;;24.65;15.77;;;;;;;8.63;100.00;96337.03;5062890;28;20072;-49
2022/04/14 03:55:57;;;;;;;23.90;15.93;;;;;;;8.98;100.00;96336.50;5066496;28;20079;-49
2022/04/14 03:58:26;;;;;;;26.30;15.77;;;;;;;8.90;100.00;96344.28;5068270;28;20640;-48
2022/04/14 04:00:55;;;;;;;23.05;15.88;;;;;;;9.06;100.00;96334.03;5061222;28;20057;-52
2022/04/14 04:03:24;;;;;;;28.20;17.88;;;;;;;9.09;100.00;96332.94;5066219;28;20091;-56
2022/04/14 04:05:52;;;;;;;25.40;17.75;;;;;;;9.08;100.00;96331.25;5066210;28;20521;-51
2022/04/14 04:08:22;;;;;;;22.20;16.33;;;;;;;9.14;100.00;96330.72;5067736;28;20083;-54
2022/04/14 04:10:50;;;;;;;23.70;16.48;;;;;;;9.11;100.00;96334.44;5065995;28;20081;-48
2022/04/14 04:13:18;;;;;;;23.25;16.40;;;;;;;9.10;100.00;96342.50;5073327;28;20072;-52
2022/04/14 04:15:47;;;;;;;22.90;16.05;;;;;;;9.12;100.00;96335.28;5066769;28;20083;-53
2022/04/14 04:18:16;;;;;;;27.83;18.45;;;;;;;9.10;100.00;96338.06;5069212;28;20060;-58
2022/04/14 04:20:46;;;;;;;27.48;18.40;;;;;;;9.24;100.00;96335.00;5067418;28;20048;-51
2022/04/14 04:23:14;;;;;;;24.77;17.10;;;;;;;9.00;100.00;96340.69;5056172;28;20514;-57
2022/04/14 04:25:43;;;;;;;29.40;17.10;;;;;;;9.13;100.00;96344.84;5066883;28;20044;-53
2022/04/14 04:28:11;;;;;;;27.35;17.20;;;;;;;9.01;100.00;96346.75;5070074;28;20059;-52
2022/04/14 04:30:40;;;;;;;23.65;17.35;;;;;;;8.86;100.00;96353.41;5070765;28;20063;-51
2022/04/14 04:33:08;;;;;;;25.85;16.75;;;;;;;9.15;100.00;96346.38;5072815;28;20067;-49
2022/04/14 04:35:37;;;;;;;26.13;16.65;;;;;;;9.26;100.00;96351.50;5067590;28;20469;-54
2022/04/14 04:38:06;;;;;;;25.42;16.50;;;;;;;9.37;100.00;96347.88;5065901;28;20213;-48
2022/04/14 04:40:34;;;;;;;23.52;17.08;;;;;;;9.49;100.00;96348.56;5068562;28;20064;-50
2022/04/14 04:43:02;;;;;;;22.23;16.77;;;;;;;9.44;100.00;96348.16;5078845;28;20076;-52
2022/04/14 04:45:31;;;;;;;21.58;16.77;;;;;;;9.58;100.00;96354.78;5069522;28;20079;-52
2022/04/14 04:47:59;;;;;;;25.52;17.00;;;;;;;9.64;100.00;96356.88;5069974;28;20068;-51
2022/04/14 04:50:28;;;;;;;23.83;18.25;;;;;;;9.67;100.00;96357.41;5069298;28;20548;-52
2022/04/14 04:52:57;;;;;;;27.48;20.40;;;;;;;9.80;100.00;96358.88;5064928;28;20083;-58
2022/04/14 04:55:26;;;;;;;24.23;19.23;;;;;;;9.99;100.00;96366.75;5068996;28;20091;-49
2022/04/14 04:57:55;;;;;;;27.00;18.88;;;;;;;10.25;100.00;96366.09;5075527;28;20075;-58
2022/04/14 05:00:23;;;;;;;28.27;21.13;;;;;;;10.29;100.00;96367.50;5070092;28;20504;-55
2022/04/14 05:02:52;;;;;;;30.33;20.88;;;;;;;10.98;100.00;96374.06;5070838;28;20044;-50
2022/04/14 05:05:22;;;;;;;26.65;20.25;;;;;;;12.06;100.00;96367.75;5066383;28;20068;-49
2022/04/14 05:07:50;;;;;;;27.13;19.08;;;;;;;12.44;100.00;96365.63;5067046;28;20060;-49
2022/04/14 05:10:20;;;;;;;25.90;17.27;;;;;;;12.17;100.00;96370.09;5068980;28;20690;-47
2022/04/14 05:12:48;;;;;;;22.45;17.65;;;;;;;12.28;100.00;96367.19;5071465;28;20077;-50
2022/04/14 05:15:16;;;;;;;20.92;16.20;;;;;;;12.33;100.00;96364.09;5068302;28;20071;-52
2022/04/14 05:17:45;;;;;;;22.70;15.57;;;;;;;12.49;100.00;96374.75;5069844;28;20052;-55
2022/04/14 05:20:13;;;;;;;18.70;14.88;;;;;;;12.76;100.00;96372.84;5072301;28;20060;-56
2022/04/14 05:22:41;;;;;;;19.35;14.80;;;;;;;12.62;100.00;96381.41;5071537;28;20528;-59
2022/04/14 05:25:10;;;;;;;22.55;16.20;;;;;;;11.77;100.00;96386.50;5067918;28;20083;-58
2022/04/14 05:27:42;;;;;;;22.08;15.88;;;;;;;11.27;100.00;96387.91;5047034;28;20088;-49
2022/04/14 05:30:11;;;;;;;20.05;16.00;;;;;;;11.99;100.00;96382.56;5064725;28;20056;-52
2022/04/14 05:32:39;;;;;;;23.58;16.92;;;;;;;11.68;100.00;96380.31;5065573;28;20086;-54
2022/04/14 05:35:09;;;;;;;24.13;17.08;;;;;;;11.48;100.00;96382.31;5064257;28;20060;-56
2022/04/14 05:37:37;;;;;;;23.17;17.77;;;;;;;11.68;100.00;96382.16;5064295;28;20068;-55
2022/04/14 05:40:08;;;;;;;24.40;18.10;;;;;;;11.76;100.00;96388.31;5063235;28;20072;-51
2022/04/14 05:42:36;;;;;;;24.73;17.63;;;;;;;11.75;100.00;96391.09;5066199;28;20065;-55
2022/04/14 05:45:07;;;;;;;21.90;17.55;;;;;;;12.02;100.00;96391.00;5069763;28;20087;-52
2022/04/14 05:47:35;;;;;;;;;;;;;;;11.82;100.00;96386.88;5070513;28;20079;-48
2022/04/14 05:50:03;;;;;;;26.65;17.20;;;;;;;11.86;100.00;96390.88;5069070;28;19983;-50
2022/04/14 05:52:32;;;;;;;21.25;17.15;;;;;;;12.36;100.00;96379.66;5069869;28;20076;-50
2022/04/14 05:55:01;;;;;;;25.30;18.15;;;;;;;12.08;100.00;96390.41;5070909;28;20447;-49
2022/04/14 05:57:30;;;;;;;29.70;17.93;;;;;;;12.27;100.00;96391.16;5062838;28;20064;-48
2022/04/14 05:59:58;;;;;;;23.65;17.27;;;;;;;12.01;100.00;96394.66;5069400;28;20440;-52
2022/04/14 06:02:28;;;;;;;22.10;16.58;;;;;;;12.30;100.00;96393.50;5063546;28;20079;-51
2022/04/14 06:04:56;;;;;;;21.63;15.60;;;;;;;12.11;100.00;96397.16;5063525;28;20068;-48
2022/04/14 06:07:25;;;;;;;21.83;16.65;;;;;;;12.37;100.00;96401.63;5069990;28;20483;-52
2022/04/14 06:09:53;;;;;;;22.15;16.20;;;;;;;12.39;100.00;96394.34;5074292;28;20064;-52
2022/04/14 06:12:21;;;;;;;23.60;16.45;;;;;;;12.63;100.00;96398.91;5069522;28;20068;-49
2022/04/14 06:14:50;;;;;;;23.33;17.17;;;;;;;12.47;100.00;96395.22;5070012;28;20132;-49
2022/04/14 06:17:18;;;;;;;21.48;16.65;;;;;;;12.89;100.00;96402.34;5069478;28;20071;-53
2022/04/14 06:19:48;;;;;;;22.70;16.77;;;;;;;13.28;100.00;96396.50;5069445;28;20048;-52
2022/04/14 06:22:16;;;;;;;19.73;16.47;;;;;;;13.25;100.00;96391.56;5069786;28;20099;-54
2022/04/14 06:24:47;;;;;;;25.40;16.65;;;;;;;13.18;100.00;96390.50;5069633;28;20051;-48
2022/04/14 06:27:16;;;;;;;21.55;17.02;;;;;;;13.39;100.00;96393.56;5068862;28;20071;-48
2022/04/14 06:29:44;;;;;;;22.33;16.77;;;;;;;13.45;100.00;96400.00;5061625;28;20497;-53
2022/04/14 06:32:12;;;;;;;21.55;16.83;;;;;;;13.66;100.00;96396.88;5069236;28;20064;-52
2022/04/14 06:34:43;;;;;;;23.45;16.73;;;;;;;13.75;100.00;96391.41;5065218;28;20082;-56
2022/04/14 06:37:13;;;;;;;22.13;17.02;;;;;;;13.89;100.00;96407.66;5069745;28;20450;-51
2022/04/14 06:39:41;;;;;;;23.73;16.58;;;;;;;13.82;100.00;96404.84;5068308;28;20097;-56
2022/04/14 06:42:09;;;;;;;20.65;16.05;;;;;;;14.27;100.00;96403.47;5069253;28;20142;-53
2022/04/14 06:44:38;;;;;;;22.77;15.27;;;;;;;14.28;100.00;96413.09;5063381;28;20079;-51
2022/04/14 06:47:07;;;;;;;21.10;16.20;;;;;;;14.34;100.00;96409.75;5067878;28;20068;-57
2022/04/14 06:49:35;;;;;;;22.98;15.88;;;;;;;14.11;100.00;96416.75;5067236;28;20071;-50
2022/04/14 06:52:04;;;;;;;24.35;16.30;;;;;;;14.43;100.00;96411.38;5069665;28;20072;-53
2022/04/14 06:54:34;;;;;;;20.00;15.75;;;;;;;14.91;100.00;96408.78;5065343;28;20067;-54
2022/04/14 06:57:02;;;;;;;20.60;15.82;;;;;;;14.84;100.00;96413.94;5068978;28;20138;-50
2022/04/14 06:59:31;;;;;;;18.42;15.73;;;;;;;14.44;100.00;96420.16;5064868;28;20060;-52
2022/04/14 07:01:59;;;;;;;20.33;16.23;;;;;;;14.63;100.00;96413.69;5069029;28;20459;-56
2022/04/14 07:04:28;;;;;;;25.33;17.35;;;;;;;15.00;100.00;96413.03;5069648;28;20438;-48
2022/04/14 07:06:56;;;;;;;18.85;15.73;;;;;;;15.16;100.00;96410.28;5069609;28;20105;-54
2022/04/14 07:09:24;;;;;;;20.30;15.93;;;;;;;15.50;100.00;96413.59;5067322;28;20060;-53
2022/04/14 07:11:54;;;;;;;22.33;16.02;;;;;;;15.20;100.00;96416.09;5068919;28;20064;-53
2022/04/14 07:14:22;;;;;;;21.63;16.05;;;;;;;15.38;100.00;96416.66;5068041;28;20059;-52
2022/04/14 07:16:50;;;;;;;19.55;16.23;;;;;;;15.77;100.00;96414.94;5067466;28;20056;-48
2022/04/14 07:19:18;;;;;;;18.52;15.90;;;;;;;15.55;100.00;96427.16;5064430;28;20072;-54
2022/04/14 07:21:47;;;;;;;23.33;15.77;;;;;;;15.89;100.00;96424.94;5066997;28;20085;-50
2022/04/14 07:24:15;;;;;;;19.95;15.65;;;;;;;15.77;100.00;96417.59;5055610;28;20064;-53
2022/04/14 07:26:44;;;;;;;23.30;16.20;;;;;;;16.31;100.00;96423.59;5065309;28;20060;-46
2022/04/14 07:29:14;;;;;;;22.80;15.80;;;;;;;16.68;100.00;96423.72;5068318;28;20060;-53
2022/04/14 07:31:42;;;;;;;21.10;15.80;;;;;;;16.21;100.00;96424.84;5068561;28;20067;-50
2022/04/14 07:34:11;;;;;;;23.10;15.77;;;;;;;16.20;100.00;96428.53;5068291;28;20068;-47
2022/04/14 07:36:40;;;;;;;20.52;15.77;;;;;;;16.92;100.00;96423.44;5068285;28;20415;-50
2022/04/14 07:39:09;;;;;;;19.73;15.30;;;;;;;17.02;100.00;96418.66;5066984;28;20440;-50
2022/04/14 07:41:37;;;;;;;18.20;15.63;;;;;;;16.69;100.00;96428.00;5067682;28;20060;-53
2022/04/14 07:44:06;;;;;;;18.25;15.60;;;;;;;16.94;100.00;96423.28;5068246;28;20122;-55
2022/04/14 07:46:38;;;;;;;19.95;15.25;;;;;;;17.93;100.00;96421.75;5071399;28;20072;-50
2022/04/14 07:49:07;;;;;;;22.75;15.40;;;;;;;17.02;100.00;96424.00;5072839;28;20087;-52
2022/04/14 07:51:35;;;;;;;19.00;15.13;;;;;;;17.70;100.00;96427.22;5072626;28;20056;-49
2022/04/14 07:54:04;;;;;;;19.23;15.68;;;;;;;17.03;100.00;96428.34;5069831;28;20072;-53
2022/04/14 07:56:33;;;;;;;19.25;14.98;;;;;;;17.78;100.00;96423.63;5065979;28;20068;-53
2022/04/14 07:59:01;;;;;;;18.98;15.55;;;;;;;17.46;100.00;96427.59;5069569;28;20083;-52
2022/04/14 08:01:29;;;;;;;21.60;16.20;;;;;;;17.84;100.00;96422.88;5071602;28;20072;-56
2022/04/14 08:03:59;;;;;;;19.00;15.05;;;;;;;18.46;100.00;96430.16;5071623;28;20604;-48
2022/04/14 08:06:29;;;;;;;20.30;15.52;;;;;;;17.72;100.00;96441.22;5071397;28;20075;-48
2022/04/14 08:08:57;;;;;;;19.70;15.38;;;;;;;17.93;100.00;96436.94;5071239;28;20040;-49
2022/04/14 08:11:25;;;;;;;19.55;14.55;;;;;;;18.01;100.00;96434.13;5071799;28;20064;-50
2022/04/14 08:13:53;;;;;;;17.98;14.85;;;;;;;18.17;100.00;96444.53;5071659;28;20527;-53
2022/04/14 08:16:22;;;;;;;16.90;13.35;;;;;;;18.22;100.00;96442.09;5069119;28;20088;-49
2022/04/14 08:18:50;;;;;;;19.52;14.52;;;;;;;18.86;100.00;96443.81;5071553;28;20525;-52
2022/04/14 08:21:20;;;;;;;20.52;14.77;;;;;;;19.19;100.00;96446.63;5070180;28;20053;-53
2022/04/14 08:23:51;;;;;;;21.30;15.15;;;;;;;18.64;100.00;96448.34;5069981;28;20067;-50
2022/04/14 08:26:21;;;;;;;17.33;13.90;;;;;;;18.60;100.00;96452.44;5070493;28;20087;-51
2022/04/14 08:28:50;;;;;;;17.27;14.27;;;;;;;18.62;100.00;96445.06;5071808;28;20071;-55
2022/04/14 08:31:18;;;;;;;18.73;15.18;;;;;;;19.45;100.00;96435.22;5071178;28;20075;-50
2022/04/14 08:33:46;;;;;;;20.15;15.20;;;;;;;19.22;100.00;96448.09;5073146;28;20471;-54
2022/04/14 08:36:16;;;;;;;18.23;14.75;;;;;;;19.55;100.00;96445.56;5071304;28;20056;-53
2022/04/14 08:38:48;;;;;;;21.83;15.75;;;;;;;19.47;100.00;96453.72;5069936;28;20074;-50
2022/04/14 08:41:21;;;;;;;18.85;15.18;;;;;;;20.19;100.00;96446.91;5064756;28;20068;-51
2022/04/14 08:43:52;;;;;;;21.05;15.27;;;;;;;20.20;100.00;96450.41;5070526;28;20060;-52
2022/04/14 08:46:21;;;;;;;18.65;12.68;;;;;;;20.00;100.00;96453.09;5068734;28;20091;-54
2022/04/14 08:48:55;;;;;;;17.65;11.95;;;;;;;19.90;100.00;96453.47;5070582;28;20084;-49
2022/04/14 08:51:23;;;;;;;15.32;12.52;;;;;;;20.12;100.00;96457.63;5066269;28;20072;-55
2022/04/14 08:53:54;;;;;;;15.07;12.68;;;;;;;20.74;100.00;96462.78;5070508;28;20071;-48
2022/04/14 08:56:24;;;;;;;16.08;12.82;;;;;;;20.24;100.00;96457.03;5068721;28;20063;-55
2022/04/14 08:58:54;;;;;;;18.33;13.40;;;;;;;20.87;100.00;96460.09;5067992;28;20542;-48
2022/04/14 09:01:25;;;;;;;17.80;13.15;;;;;;;20.97;100.00;96460.47;5065255;28;20087;-51
2022/04/14 09:03:57;;;;;;;16.98;13.25;;;;;;;20.98;100.00;96456.75;5065626;28;20454;-52
2022/04/14 09:06:27;;;;;;;16.63;12.82;;;;;;;20.57;100.00;96465.88;5069812;28;20056;-55
2022/04/14 09:08:58;;;;;;;;;;;;;;;20.72;100.00;96462.19;5069369;28;20498;-53
2022/04/14 09:11:27;;;;;;;15.20;13.10;;;;;;;21.19;100.00;96458.34;5069788;28;19960;-51
2022/04/14 09:13:56;;;;;;;15.10;13.45;;;;;;;21.60;100.00;96459.03;5068847;28;20079;-51
2022/04/14 09:16:26;;;;;;;14.07;12.10;;;;;;;20.64;100.00;96463.22;5061958;28;20084;-52
2022/04/14 09:18:55;;;;;;;13.38;11.98;;;;;;;21.38;100.00;96456.66;5061864;28;20082;-55
2022/04/14 09:21:23;;;;;;;14.60;12.13;;;;;;;21.14;92.14;96452.81;5069102;28;20076;-53
2022/04/14 09:23:52;;;;;;;14.70;13.00;;;;;;;21.88;88.05;96454.13;5068495;28;20449;-49
2022/04/14 09:26:24;;;;;;;14.95;12.00;;;;;;;22.25;82.10;96463.22;5069842;28;20064;-50
2022/04/14 09:29:10;;;;;;;13.95;10.75;;;;;;;22.26;90.17;96454.13;5069434;28;20060;-53
2022/04/14 09:31:47;;;;;;;13.43;9.93;;;;;;;21.93;82.96;96457.00;5069077;28;20423;-53
2022/04/14 09:34:18;;;;;;;13.95;9.93;;;;;;;22.38;74.50;96456.09;5064418;28;20075;-53
2022/04/14 09:37:07;;;;;;;11.48;9.10;;;;;;;22.72;69.38;96450.22;5070461;28;20068;-49
2022/04/14 09:39:56;;;;;;;14.07;10.05;;;;;;;23.34;61.48;96455.59;5065214;28;1060128;-49
2022/04/14 09:42:26;;;;;;;11.43;9.95;;;;;;;23.42;62.90;96446.38;5072973;28;20060;-55
2022/04/14 09:44:55;;;;;;;13.23;9.85;;;;;;;23.66;62.18;96452.69;5070094;28;20068;-53
2022/04/14 09:47:24;;;;;;;13.57;10.13;;;;;;;24.07;57.57;96457.31;5070356;28;20556;-54
2022/04/14 09:49:52;;;;;;;10.37;9.23;;;;;;;23.04;59.54;96457.38;5069692;28;20059;-53
2022/04/14 09:52:21;;;;;;;12.95;9.27;;;;;;;24.13;54.28;96447.50;5064701;28;20502;-54
2022/04/14 09:54:50;;;;;;;11.95;9.20;;;;;;;24.42;50.83;96448.53;5070580;28;20088;-55
2022/04/14 09:57:18;;;;;;;13.20;9.27;;;;;;;24.44;55.25;96451.00;5069919;28;20071;-51
2022/04/14 09:59:48;;;;;;;7.47;6.32;;;;;;;23.40;50.72;96453.84;5069945;28;20542;-57
2022/04/14 10:02:18;;;;;;;7.25;6.22;;;;;;;23.39;48.27;96450.34;5069305;28;20693;-51
2022/04/14 10:04:47;;;;;;;10.43;7.20;;;;;;;23.33;53.66;96437.81;5068923;28;20060;-53
2022/04/14 10:07:17;;;;;;;7.40;6.20;;;;;;;23.55;47.85;96440.00;5069492;28;20119;-55
2022/04/14 10:09:48;;;;;;;9.50;6.88;;;;;;;24.33;46.69;96431.84;5069257;28;20076;-48
2022/04/14 10:12:30;;;;;;;5.75;4.80;;;;;;;23.20;47.24;96438.78;5063167;28;20071;-53
2022/04/14 10:15:02;;;;;;;8.93;5.95;;;;;;;24.39;46.18;96438.19;5062247;28;20166;-55
2022/04/14 10:17:32;;;;;;;11.73;6.97;;;;;;;23.51;49.13;96442.34;5068365;28;20079;-55
2022/04/14 10:20:01;;;;;;;8.80;7.57;;;;;;;24.24;46.67;96440.50;5069456;28;20087;-52
2022/04/14 10:22:29;;;;;;;8.50;6.72;;;;;;;24.38;47.63;96441.94;5069175;28;20056;-48
2022/04/14 10:24:58;;;;;;;9.32;7.25;;;;;;;23.81;49.17;96437.00;5070299;28;20064;-49
2022/04/14 10:27:27;;;;;;;10.90;7.60;;;;;;;23.84;50.96;96438.41;5062846;28;20183;-50
2022/04/14 10:29:55;;;;;;;10.10;7.32;;;;;;;23.42;53.66;96433.75;5068861;28;20082;-50
2022/04/14 10:32:26;;;;;;;8.75;6.50;;;;;;;23.85;54.00;96437.38;5069252;28;20456;-45
2022/04/14 10:34:56;;;;;;;10.05;7.50;;;;;;;23.39;51.64;96439.56;5065712;28;20068;-48
2022/04/14 10:37:29;;;;;;;12.48;8.35;;;;;;;23.85;53.45;96427.41;5067539;28;20107;-47
2022/04/14 10:39:57;;;;;;;13.15;10.00;;;;;;;23.43;57.60;96427.34;5069123;28;20155;-46
2022/04/14 10:42:26;;;;;;;13.52;9.10;;;;;;;24.24;60.38;96435.94;5069064;28;20087;-52
2022/04/14 10:44:56;;;;;;;11.40;9.73;;;;;;;24.20;51.35;96432.06;5069251;28;20079;-47
2022/04/14 10:47:36;;;;;;;14.93;9.90;;;;;;;23.96;59.51;96431.19;5068991;28;20541;-49
2022/04/14 10:50:04;;;;;;;13.65;10.50;;;;;;;23.98;55.09;96433.63;5068506;28;20083;-52
2022/04/14 10:53:01;;;;;;;14.35;10.43;;;;;;;24.14;56.61;96427.59;5067083;28;20063;-48
2022/04/14 10:55:41;;;;;;;13.90;9.80;;;;;;;24.05;55.48;96431.66;5063183;28;20080;-51
2022/04/14 10:58:48;;;;;;;15.57;9.95;;;;;;;23.72;53.94;96429.47;5069433;28;20072;-45
2022/04/14 11:01:16;;;;;;;13.57;8.70;;;;;;;24.44;49.95;96419.47;5027837;28;20462;-52
2022/04/14 11:03:47;;;;;;;16.75;8.95;;;;;;;23.76;53.12;96426.09;5050560;28;20504;-55
2022/04/14 11:06:48;;;;;;;11.57;8.55;;;;;;;24.17;53.58;96424.44;5065457;28;20067;-52
2022/04/14 11:09:48;;;;;;;11.63;8.68;;;;;;;24.33;49.79;96425.66;5062903;28;20094;-56
2022/04/14 11:12:18;;;;;;;;;;;;;;;24.88;45.51;96428.03;5066082;28;20070;-51
2022/04/14 11:14:52;;;;;;;12.70;7.90;;;;;;;25.46;43.51;96424.41;5068741;28;20349;-51
2022/04/14 11:17:48;;;;;;;15.63;7.90;;;;;;;25.06;42.64;96433.28;5069221;28;20064;-52
2022/04/14 11:20:20;;;;;;;11.73;8.60;;;;;;;24.74;51.19;96434.72;5068294;28;20466;-50
2022/04/14 11:23:20;;;;;;;14.40;9.57;;;;;;;25.13;50.01;96430.50;5065566;28;20060;-54
2022/04/14 11:25:50;;;;;;;14.70;9.82;;;;;;;24.67;47.47;96428.63;5026518;28;20698;-50
2022/04/14 11:28:25;;;;;;;13.18;8.85;;;;;;;25.52;43.77;96418.06;5068821;28;20549;-53